Thunderstorms From: 21-05-2018 15:00 Until: 22-05-2018 15:00 warning for: Thunderstorms Level: Yellow info button

Although rather usual in this region, locally or potentially dangerous phenomena are expected. (such as local winds, summer thunderstorms, rising streams or high waves) Be aware and pay attention to the latest weather updates, especially if you carry out activities exposed to weather or close to a stream or shoreline. 


Meteo18 Weather Cam more information Meteo18 Weather Cam


warning for Thunderstorms more information blitzortung!


Rain radar more information rain snow radar


Visit our other weather sites:

Template documentation
and downloads

And another site



Weather Underground History page Text

Daily Summary for June 3, 2017 Units:  English    Metric   Both
« Previous Day
Next Day »
Daily Weekly Monthly Yearly Custom
  High: Low: Average:
Temperature: TemperatureC °F 14.3 °F 17.3 °F
Dew Point: DewpointC °F 13.3 °F 15.6 °F
Humidity: Humidity % 75 % 89 %
Wind Speed: WindSpeedKMH mph 0.0 mph 3 mph
Wind Gust: WindSpeedGustKMH mph - -
Wind:- - WSW
Pressure: PressurehPa in 1015.1 in -
Precipitation: 9.4 in    
Historical Graphs
 
 
Tabular Data for June 3, 2017
Time Temperature Dew Point Pressure Wind Wind Speed Wind Gust Humidity Rainfall Rate (Hourly)
TemperatureC °F DewpointC °F PressurehPa in Calm     Humidity % HourlyPrecipMM in
00:02 18.8 °F 16.0 °F 1016.5 in Calm   3.2 mph 84 % 0.0 in
00:07 18.8 °F 16.2 °F 1016.5 in Calm   3.2 mph 85 % 0.0 in
00:12 18.7 °F 16.1 °F 1016.5 in Calm   3.2 mph 85 % 0.0 in
00:17 18.5 °F 16.1 °F 1016.5 in Calm   1.6 mph 86 % 0.0 in
00:22 18.4 °F 16.0 °F 1016.5 in Calm   1.6 mph 86 % 0.0 in
00:32 18.5 °F 16.1 °F 1016.5 in Calm   1.6 mph 86 % 0.0 in
00:37 18.4 °F 16.0 °F 1016.5 in Calm     86 % 0.0 in
00:42 18.2 °F 15.8 °F 1016.5 in Calm     86 % 0.0 in
00:47 18.1 °F 15.9 °F 1016.5 in Calm     87 % 0.0 in
00:52 18.1 °F 16.1 °F 1016.8 in WNW 1.6 mph   88 % 0.0 in
00:57 17.8 °F 15.8 °F 1016.8 in WNW 1.6 mph 1.6 mph 88 % 0.0 in
01:02 17.7 °F 15.9 °F 1016.8 in WNW 1.6 mph 1.6 mph 89 % 0.0 in
01:07 17.6 °F 15.9 °F 1016.8 in WNW 1.6 mph 1.6 mph 90 % 0.0 in
01:12 17.7 °F 16.0 °F 1016.8 in Calm   1.6 mph 90 % 0.0 in
01:17 17.7 °F 15.9 °F 1016.5 in Calm   1.6 mph 89 % 0.0 in
01:22 17.7 °F 15.9 °F 1016.5 in Calm   1.6 mph 89 % 0.0 in
01:27 17.6 °F 15.9 °F 1016.1 in NNE 1.6 mph 3.2 mph 90 % 0.0 in
01:32 17.5 °F 15.8 °F 1016.1 in Calm   3.2 mph 90 % 0.0 in
01:37 17.5 °F 15.8 °F 1016.1 in Calm   3.2 mph 90 % 0.0 in
01:42 17.5 °F 15.8 °F 1016.1 in Calm   3.2 mph 90 % 0.0 in
01:47 17.4 °F 15.7 °F 1016.1 in Calm   1.6 mph 90 % 0.0 in
01:52 17.3 °F 15.6 °F 1016.1 in Calm   1.6 mph 90 % 0.0 in
01:57 17.2 °F 15.7 °F 1016.1 in Calm   1.6 mph 91 % 0.0 in
02:02 17.2 °F 15.7 °F 1016.1 in WNW 1.6 mph 1.6 mph 91 % 0.0 in
02:07 17.2 °F 15.7 °F 1016.1 in Calm   1.6 mph 91 % 0.0 in
02:12 17.1 °F 15.6 °F 1015.8 in Calm   1.6 mph 91 % 0.0 in
02:17 17.1 °F 15.6 °F 1015.8 in Calm   1.6 mph 91 % 0.0 in
02:22 17.1 °F 15.6 °F 1015.8 in Calm   1.6 mph 91 % 0.0 in
02:27 17.0 °F 15.5 °F 1015.8 in Calm     91 % 0.0 in
02:32 16.9 °F 15.6 °F 1015.8 in WNW 1.6 mph 1.6 mph 92 % 0.0 in
02:37 16.8 °F 15.5 °F 1015.8 in WNW 1.6 mph 1.6 mph 92 % 0.0 in
02:42 16.7 °F 15.4 °F 1015.8 in Calm   1.6 mph 92 % 0.0 in
02:47 16.7 °F 15.4 °F 1015.8 in Calm   1.6 mph 92 % 0.0 in
02:52 16.7 °F 15.4 °F 1015.8 in Calm   1.6 mph 92 % 0.0 in
02:57 16.7 °F 15.4 °F 1015.8 in Calm   1.6 mph 92 % 0.0 in
03:02 16.7 °F 15.4 °F 1015.8 in Calm     92 % 0.0 in
03:07 16.7 °F 15.4 °F 1015.8 in Calm     92 % 0.0 in
03:12 16.6 °F 15.3 °F 1015.8 in Calm     92 % 0.0 in
03:17 16.4 °F 15.1 °F 1015.8 in Calm     92 % 0.0 in
03:22 16.3 °F 15.2 °F 1015.8 in Calm   1.6 mph 93 % 0.0 in
03:27 16.2 °F 15.1 °F 1015.8 in WNW 1.6 mph 1.6 mph 93 % 0.0 in
03:32 16.2 °F 15.1 °F 1015.8 in WNW 1.6 mph 3.2 mph 93 % 0.0 in
03:37 16.2 °F 15.2 °F 1015.8 in Calm   3.2 mph 94 % 0.0 in
03:42 16.2 °F 15.2 °F 1015.5 in WNW 3.2 mph 3.2 mph 94 % 0.0 in
03:47 16.2 °F 15.1 °F 1015.8 in WNW 1.6 mph 3.2 mph 93 % 0.0 in
03:52 16.1 °F 15.1 °F 1015.8 in Calm   3.2 mph 94 % 0.0 in
03:57 16.1 °F 15.1 °F 1015.8 in Calm   3.2 mph 94 % 0.0 in
04:02 15.9 °F 14.9 °F 1015.8 in Calm   1.6 mph 94 % 0.0 in
04:07 15.9 °F 14.9 °F 1015.8 in WNW 1.6 mph 3.2 mph 94 % 0.0 in
04:12 15.9 °F 14.9 °F 1015.8 in WNW 1.6 mph 3.2 mph 94 % 0.0 in
04:17 15.9 °F 14.9 °F 1015.5 in Calm   3.2 mph 94 % 0.0 in
04:22 16.0 °F 15.0 °F 1015.5 in Calm   3.2 mph 94 % 0.0 in
04:27 16.1 °F 15.1 °F 1015.5 in Calm   3.2 mph 94 % 0.0 in
04:32 16.2 °F 15.2 °F 1015.5 in Calm   1.6 mph 94 % 0.0 in
04:37 16.2 °F 15.2 °F 1015.5 in Calm   1.6 mph 94 % 0.0 in
04:42 16.1 °F 15.1 °F 1015.5 in Calm   1.6 mph 94 % 0.0 in
04:47 16.2 °F 15.2 °F 1015.5 in Calm     94 % 0.0 in
04:52 16.2 °F 15.2 °F 1015.5 in Calm     94 % 0.0 in
04:57 16.2 °F 15.2 °F 1015.5 in Calm     94 % 0.0 in
05:02 16.3 °F 15.3 °F 1015.5 in Calm     94 % 0.0 in
05:12 16.3 °F 15.3 °F 1015.5 in Calm     94 % 0.0 in
05:17 16.2 °F 15.2 °F 1015.5 in Calm     94 % 0.0 in
05:22 16.2 °F 15.2 °F 1015.5 in Calm     94 % 0.0 in
05:27 16.1 °F 15.1 °F 1015.5 in Calm     94 % 0.0 in
05:32 16.1 °F 15.1 °F 1015.5 in Calm     94 % 0.0 in
05:37 16.1 °F 15.1 °F 1015.5 in Calm     94 % 0.0 in
05:42 16.2 °F 15.2 °F 1015.5 in Calm     94 % 0.0 in
05:47 16.2 °F 15.2 °F 1015.5 in Calm     94 % 0.0 in
05:52 16.1 °F 15.1 °F 1015.5 in Calm     94 % 0.0 in
05:57 15.9 °F 14.9 °F 1015.5 in Calm     94 % 0.0 in
06:02 15.9 °F 14.9 °F 1015.5 in Calm     94 % 0.0 in
06:12 15.9 °F 14.9 °F 1015.5 in Calm     94 % 0.0 in
06:17 15.8 °F 14.8 °F 1015.5 in Calm     94 % 0.0 in
06:22 15.6 °F 14.6 °F 1015.5 in Calm     94 % 0.0 in
06:27 15.6 °F 14.6 °F 1015.5 in Calm     94 % 0.0 in
06:32 15.6 °F 14.8 °F 1015.1 in Calm     95 % 0.0 in
06:37 15.7 °F 14.9 °F 1015.5 in Calm     95 % 0.0 in
06:42 15.8 °F 15.0 °F 1015.5 in Calm     95 % 0.0 in
06:47 16.1 °F 15.3 °F 1015.1 in Calm     95 % 0.0 in
06:52 16.5 °F 15.7 °F 1015.5 in Calm     95 % 0.0 in
07:02 16.9 °F 15.9 °F 1015.5 in Calm     94 % 0.0 in
07:07 17.3 °F 16.3 °F 1015.5 in Calm     94 % 0.0 in
07:12 17.4 °F 16.3 °F 1015.5 in Calm     93 % 0.0 in
07:17 17.2 °F 15.9 °F 1015.5 in Calm     92 % 0.0 in
07:22 17.2 °F 16.1 °F 1015.8 in Calm     93 % 0.0 in
07:27 17.1 °F 15.8 °F 1015.8 in Calm   4.8 mph 92 % 0.0 in
07:32 17.1 °F 16.0 °F 1015.8 in Calm   4.8 mph 93 % 0.0 in
07:42 17.1 °F 16.0 °F 1015.8 in Calm   4.8 mph 93 % 0.0 in
07:47 17.1 °F 16.0 °F 1015.8 in Calm   3.2 mph 93 % 0.0 in
07:52 17.1 °F 16.0 °F 1016.1 in Calm   3.2 mph 93 % 0.0 in
07:57 17.1 °F 16.0 °F 1016.1 in Calm   3.2 mph 93 % 0.0 in
08:02 17.1 °F 16.0 °F 1016.1 in Calm   1.6 mph 93 % 0.0 in
08:07 17.2 °F 16.1 °F 1016.1 in Calm   1.6 mph 93 % 0.0 in
08:12 17.2 °F 16.1 °F 1015.8 in Calm   1.6 mph 93 % 0.0 in
08:17 17.2 °F 16.1 °F 1016.1 in WNW 1.6 mph 3.2 mph 93 % 0.0 in
08:22 17.3 °F 16.3 °F 1016.1 in SSW 3.2 mph 3.2 mph 94 % 0.0 in
08:27 17.4 °F 16.4 °F 1016.1 in SSW 4.8 mph 8.0 mph 94 % 0.0 in
08:32 17.4 °F 16.3 °F 1016.1 in SW 4.8 mph 11.3 mph 93 % 0.0 in
08:37 17.4 °F 16.4 °F 1016.1 in SW 1.6 mph 11.3 mph 94 % 0.0 in
08:42 17.4 °F 16.4 °F 1016.1 in Calm   9.7 mph 94 % 0.0 in
08:47 17.4 °F 16.4 °F 1016.1 in Calm   9.7 mph 94 % 0.0 in
08:52 17.6 °F 16.6 °F 1016.1 in Calm   4.8 mph 94 % 0.0 in
08:57 17.7 °F 16.7 °F 1016.1 in Calm   3.2 mph 94 % 0.0 in
09:02 17.9 °F 16.9 °F 1016.1 in Calm   3.2 mph 94 % 0.0 in
09:07 18.1 °F 17.1 °F 1016.1 in NNW 1.6 mph 4.8 mph 94 % 0.0 in
09:12 18.2 °F 17.0 °F 1016.1 in WNW 3.2 mph 8.0 mph 93 % 0.0 in
09:17 18.3 °F 17.1 °F 1016.1 in West 3.2 mph 8.0 mph 93 % 0.0 in
09:22 18.4 °F 17.2 °F 1016.1 in WSW 3.2 mph 8.0 mph 93 % 0.0 in
09:27 18.4 °F 17.2 °F 1016.5 in West 1.6 mph 8.0 mph 93 % 0.0 in
09:32 18.6 °F 17.4 °F 1016.5 in SW 1.6 mph 4.8 mph 93 % 0.0 in
09:37 18.6 °F 17.3 °F 1016.5 in SSW 3.2 mph 4.8 mph 92 % 0.0 in
09:42 18.6 °F 17.3 °F 1016.5 in SSW 6.4 mph 8.0 mph 92 % 0.0 in
09:47 18.6 °F 17.3 °F 1016.5 in SSW 4.8 mph 8.0 mph 92 % 0.0 in
09:52 18.6 °F 17.3 °F 1016.5 in SSW 3.2 mph 8.0 mph 92 % 0.0 in
09:57 18.6 °F 17.3 °F 1016.5 in SSW 3.2 mph 8.0 mph 92 % 0.0 in
10:02 18.4 °F 16.9 °F 1016.8 in SW 9.7 mph 9.7 mph 91 % 0.0 in
10:07 18.2 °F 16.9 °F 1016.8 in SW 12.9 mph 12.9 mph 92 % 0.0 in
10:12 17.9 °F 16.4 °F 1016.8 in SW 8.0 mph 12.9 mph 91 % 0.0 in
10:17 17.8 °F 16.5 °F 1016.8 in SSW 3.2 mph 14.5 mph 92 % 0.0 in
10:22 17.6 °F 16.1 °F 1016.8 in SW 14.5 mph 14.5 mph 91 % 0.0 in
10:27 17.5 °F 16.0 °F 1016.8 in SW 12.9 mph 17.7 mph 91 % 0.0 in
10:32 17.4 °F 15.7 °F 1017.2 in SSE 12.9 mph 17.7 mph 90 % 0.0 in
10:37 17.4 °F 15.7 °F 1016.8 in SSW 8.0 mph 19.3 mph 90 % 0.0 in
10:42 17.5 °F 15.8 °F 1017.2 in SSE 6.4 mph 19.3 mph 90 % 0.0 in
10:47 17.6 °F 15.9 °F 1016.8 in SW 4.8 mph 19.3 mph 90 % 0.0 in
10:52 17.7 °F 15.9 °F 1016.8 in SSW 4.8 mph 14.5 mph 89 % 0.0 in
10:57 17.7 °F 15.9 °F 1016.8 in WSW 6.4 mph 12.9 mph 89 % 0.0 in
11:02 17.8 °F 16.0 °F 1016.8 in WSW 4.8 mph 11.3 mph 89 % 0.0 in
11:07 17.9 °F 16.2 °F 1016.8 in SW 3.2 mph 11.3 mph 90 % 0.0 in
11:12 18.0 °F 16.3 °F 1016.8 in SSW 1.6 mph 9.7 mph 90 % 0.0 in
11:17 18.1 °F 16.4 °F 1016.8 in WSW 4.8 mph 9.7 mph 90 % 0.0 in
11:22 18.3 °F 16.5 °F 1016.8 in SSW 3.2 mph 8.0 mph 89 % 0.0 in
11:27 18.4 °F 16.2 °F 1016.8 in SSW 4.8 mph 8.0 mph 87 % 0.0 in
11:32 18.6 °F 16.2 °F 1016.8 in WSW 6.4 mph 9.7 mph 86 % 0.0 in
11:37 18.6 °F 16.2 °F 1016.8 in SW 4.8 mph 9.7 mph 86 % 0.0 in
11:42 18.6 °F 16.0 °F 1016.8 in SSW 4.8 mph 9.7 mph 85 % 0.0 in
11:47 18.7 °F 16.1 °F 1016.8 in SW 6.4 mph 11.3 mph 85 % 0.0 in
11:52 18.8 °F 16.2 °F 1016.8 in SSW 3.2 mph 12.9 mph 85 % 0.0 in
12:02 18.9 °F 15.8 °F 1016.8 in West 6.4 mph 11.3 mph 82 % 0.0 in
12:07 18.9 °F 15.9 °F 1016.8 in SW 6.4 mph 11.3 mph 83 % 0.0 in
12:12 18.9 °F 15.9 °F 1016.8 in SW 3.2 mph 11.3 mph 83 % 0.0 in
12:17 19.1 °F 15.6 °F 1016.8 in SW 9.7 mph 12.9 mph 80 % 0.0 in
12:22 19.0 °F 15.5 °F 1016.8 in SSW 3.2 mph 12.9 mph 80 % 0.0 in
12:32 19.1 °F 15.6 °F 1016.8 in SW 8.0 mph 11.3 mph 80 % 0.0 in
12:42 18.9 °F 15.6 °F 1016.5 in SW 3.2 mph 11.3 mph 81 % 0.0 in
12:47 18.9 °F 15.8 °F 1016.5 in SW 3.2 mph 11.3 mph 82 % 0.0 in
12:52 18.9 °F 15.9 °F 1016.5 in SSW 6.4 mph 11.3 mph 83 % 0.0 in
12:57 18.8 °F 15.9 °F 1016.5 in SSW 4.8 mph 9.7 mph 83 % 0.0 in
13:02 18.8 °F 15.9 °F 1016.1 in WSW 6.4 mph 9.7 mph 83 % 0.3 in
13:12 19.1 °F 16.3 °F 1016.1 in SSW 6.4 mph 11.3 mph 84 % 0.3 in
13:17 19.2 °F 16.2 °F 1016.1 in SSW 1.6 mph 9.7 mph 83 % 0.3 in
13:22 19.4 °F 16.6 °F 1016.1 in SW 3.2 mph 11.3 mph 84 % 0.3 in
13:27 19.6 °F 16.6 °F 1016.1 in SSW 8.0 mph 11.3 mph 83 % 0.3 in
13:32 19.7 °F 16.5 °F 1015.8 in WSW 8.0 mph 12.9 mph 82 % 0.3 in
13:37 19.8 °F 16.4 °F 1015.8 in SSW 8.0 mph 12.9 mph 81 % 0.3 in
13:42 19.8 °F 16.4 °F 1015.8 in SW 8.0 mph 12.9 mph 81 % 0.3 in
13:52 19.9 °F 16.5 °F 1015.8 in WSW 6.4 mph 14.5 mph 81 % 0.3 in
13:57 19.9 °F 16.3 °F 1015.8 in WSW 3.2 mph 14.5 mph 80 % 0.3 in
14:02 20.1 °F 16.5 °F 1015.8 in SW 8.0 mph 14.5 mph 80 % 0.0 in
14:07 20.0 °F 16.4 °F 1015.8 in WSW 9.7 mph 14.5 mph 80 % 0.0 in
14:12 19.9 °F 16.1 °F 1015.8 in West 8.0 mph 14.5 mph 79 % 0.0 in
14:22 20.1 °F 16.5 °F 1015.5 in WSW 6.4 mph 14.5 mph 80 % 0.0 in
14:27 20.2 °F 16.4 °F 1015.5 in SW 8.0 mph 14.5 mph 79 % 0.0 in
14:32 20.2 °F 16.4 °F 1015.5 in West 8.0 mph 14.5 mph 79 % 0.0 in
14:37 20.2 °F 16.6 °F 1015.5 in WNW 8.0 mph 14.5 mph 80 % 0.0 in
14:42 20.2 °F 16.4 °F 1015.5 in WSW 4.8 mph 17.7 mph 79 % 0.0 in
14:47 20.2 °F 15.6 °F 1015.5 in WSW 6.4 mph 17.7 mph 75 % 0.0 in
14:52 20.2 °F 15.8 °F 1015.5 in WSW 4.8 mph 17.7 mph 76 % 0.0 in
15:02 20.2 °F 16.0 °F 1015.1 in WNW 8.0 mph 12.9 mph 77 % 0.0 in
15:07 20.3 °F 16.3 °F 1015.1 in Calm   11.3 mph 78 % 0.0 in
15:12 20.5 °F 16.3 °F 1015.1 in WSW 3.2 mph 11.3 mph 77 % 0.0 in
15:17 20.6 °F 16.6 °F 1015.1 in WNW 4.8 mph 11.3 mph 78 % 0.0 in
15:22 20.7 °F 16.5 °F 1015.1 in WNW 3.2 mph 6.4 mph 77 % 0.0 in
15:32 20.8 °F 16.2 °F 1015.1 in West 6.4 mph 6.4 mph 75 % 0.0 in
15:37 20.7 °F 16.3 °F 1015.1 in WNW 4.8 mph 11.3 mph 76 % 0.0 in
15:42 20.7 °F 16.5 °F 1015.1 in WNW 8.0 mph 11.3 mph 77 % 0.0 in
15:47 20.6 °F 16.6 °F 1015.1 in WNW 8.0 mph 11.3 mph 78 % 0.0 in
15:52 20.4 °F 16.6 °F 1015.1 in WNW 14.5 mph 14.5 mph 79 % 0.0 in
15:57 20.3 °F 16.5 °F 1015.1 in West 3.2 mph 16.1 mph 79 % 0.0 in
16:02 20.3 °F 16.5 °F 1015.1 in West 1.6 mph 16.1 mph 79 % 0.0 in
16:07 20.3 °F 16.5 °F 1015.1 in WNW 9.7 mph 16.1 mph 79 % 0.0 in
16:12 20.2 °F 16.2 °F 1015.1 in NW 6.4 mph 11.3 mph 78 % 0.0 in
16:17 20.1 °F 16.1 °F 1015.1 in WNW 4.8 mph 11.3 mph 78 % 0.0 in
16:22 19.9 °F 16.3 °F 1015.1 in WNW 3.2 mph 17.7 mph 80 % 0.0 in
16:27 19.7 °F 16.2 °F 1015.1 in West 8.0 mph 17.7 mph 80 % 0.0 in
16:32 19.5 °F 16.0 °F 1015.1 in NNW 4.8 mph 17.7 mph 80 % 0.0 in
16:37 19.3 °F 15.8 °F 1015.1 in West 8.0 mph 16.1 mph 80 % 0.0 in
16:47 19.0 °F 16.0 °F 1015.1 in WNW 8.0 mph 16.1 mph 83 % 0.0 in
16:52 18.8 °F 16.0 °F 1015.1 in WNW 8.0 mph 14.5 mph 84 % 0.3 in
16:57 18.6 °F 16.2 °F 1015.1 in WNW 3.2 mph 14.5 mph 86 % 0.5 in
17:02 18.4 °F 16.2 °F 1015.1 in WNW 9.7 mph 14.5 mph 87 % 0.5 in
17:07 18.3 °F 16.1 °F 1015.1 in West 6.4 mph 12.9 mph 87 % 0.5 in
17:12 18.2 °F 16.2 °F 1015.1 in West 3.2 mph 12.9 mph 88 % 0.5 in
17:17 18.1 °F 16.1 °F 1015.1 in WSW 11.3 mph 16.1 mph 88 % 0.5 in
17:22 18.1 °F 16.3 °F 1015.1 in NW 6.4 mph 16.1 mph 89 % 0.5 in
17:27 18.1 °F 16.3 °F 1015.1 in NW 6.4 mph 16.1 mph 89 % 0.5 in
17:37 17.8 °F 16.1 °F 1015.1 in NW 9.7 mph 14.5 mph 90 % 1.3 in
17:42 17.7 °F 16.0 °F 1015.1 in NNE 8.0 mph 16.1 mph 90 % 1.3 in
17:52 17.4 °F 15.9 °F 1015.5 in NW 4.8 mph 16.1 mph 91 % 1.0 in
17:57 17.3 °F 15.8 °F 1015.5 in NW 9.7 mph 16.1 mph 91 % 1.0 in
18:02 17.0 °F 15.3 °F 1015.5 in NW 11.3 mph 17.7 mph 90 % 1.0 in
18:12 16.6 °F 15.0 °F 1015.5 in NNW 9.7 mph 24.1 mph 90 % 1.3 in
18:17 16.3 °F 14.7 °F 1015.5 in WNW 11.3 mph 24.1 mph 90 % 1.3 in
18:22 16.1 °F 14.5 °F 1015.5 in NW 4.8 mph 20.9 mph 90 % 1.5 in
18:27 16.0 °F 14.5 °F 1015.5 in NW 3.2 mph 20.9 mph 91 % 1.3 in
18:32 15.9 °F 14.4 °F 1015.5 in NW 8.0 mph 17.7 mph 91 % 1.3 in
18:42 15.9 °F 14.4 °F 1015.8 in WNW 6.4 mph 17.7 mph 91 % 1.3 in
18:47 15.9 °F 14.4 °F 1015.5 in NW 4.8 mph 16.1 mph 91 % 1.0 in
18:52 15.9 °F 14.4 °F 1015.5 in Calm   16.1 mph 91 % 1.0 in
18:57 15.9 °F 14.4 °F 1015.5 in WNW 3.2 mph 12.9 mph 91 % 1.0 in
19:02 15.9 °F 14.4 °F 1015.5 in Calm   12.9 mph 91 % 0.8 in
19:07 15.9 °F 14.6 °F 1015.5 in NW 3.2 mph 12.9 mph 92 % 0.8 in
19:12 15.9 °F 14.6 °F 1015.8 in Calm   8.0 mph 92 % 0.8 in
19:17 15.9 °F 14.4 °F 1015.8 in Calm   6.4 mph 91 % 0.5 in
19:27 15.9 °F 14.4 °F 1015.8 in Calm   3.2 mph 91 % 0.5 in
19:32 15.9 °F 14.6 °F 1015.8 in Calm   3.2 mph 92 % 0.5 in
19:42 15.9 °F 14.6 °F 1015.8 in Calm   3.2 mph 92 % 0.5 in
19:47 15.9 °F 14.6 °F 1015.8 in Calm   3.2 mph 92 % 0.5 in
19:52 15.8 °F 14.5 °F 1015.8 in Calm   3.2 mph 92 % 0.5 in
19:57 15.8 °F 14.5 °F 1015.8 in Calm   1.6 mph 92 % 0.5 in
20:02 15.8 °F 14.5 °F 1015.8 in Calm   1.6 mph 92 % 0.5 in
20:12 15.8 °F 14.7 °F 1015.8 in Calm     93 % 0.5 in
20:17 15.8 °F 14.7 °F 1015.8 in Calm     93 % 0.5 in
20:22 15.8 °F 14.7 °F 1015.8 in Calm     93 % 0.5 in
20:27 15.8 °F 14.8 °F 1015.8 in Calm     94 % 0.5 in
20:32 15.9 °F 14.9 °F 1016.1 in Calm     94 % 0.5 in
20:37 15.9 °F 14.9 °F 1016.1 in Calm     94 % 0.5 in
20:42 16.0 °F 15.2 °F 1016.1 in WNW 4.8 mph 4.8 mph 95 % 1.0 in
20:47 16.1 °F 15.1 °F 1016.1 in NNE 6.4 mph 14.5 mph 94 % 2.5 in
20:57 15.9 °F 14.9 °F 1016.1 in NW 1.6 mph 11.3 mph 94 % 4.1 in
21:02 15.9 °F 14.9 °F 1016.1 in NW 3.2 mph 6.4 mph 94 % 4.3 in
21:12 15.8 °F 15.0 °F 1016.1 in Calm   4.8 mph 95 % 4.3 in
21:17 15.8 °F 15.0 °F 1016.1 in Calm   4.8 mph 95 % 4.6 in
21:22 15.7 °F 14.9 °F 1016.1 in Calm   4.8 mph 95 % 4.8 in
21:27 15.7 °F 14.9 °F 1016.1 in Calm   1.6 mph 95 % 4.8 in
21:32 15.7 °F 14.9 °F 1016.1 in Calm   1.6 mph 95 % 4.6 in
21:37 15.7 °F 14.9 °F 1016.5 in Calm   1.6 mph 95 % 4.8 in
21:42 15.7 °F 14.9 °F 1016.1 in Calm     95 % 4.1 in
21:47 15.7 °F 14.9 °F 1016.1 in Calm     95 % 2.5 in
21:52 15.7 °F 14.9 °F 1016.5 in Calm     95 % 1.5 in
21:57 15.8 °F 15.0 °F 1016.5 in Calm     95 % 1.3 in
22:02 15.7 °F 14.9 °F 1016.5 in Calm     95 % 1.0 in
22:07 15.8 °F 15.2 °F 1016.8 in Calm     96 % 1.0 in
22:12 15.8 °F 15.2 °F 1016.8 in Calm     96 % 1.0 in
22:17 15.8 °F 15.2 °F 1016.8 in WNW 3.2 mph 4.8 mph 96 % 0.8 in
22:22 15.8 °F 15.0 °F 1017.2 in WNW 6.4 mph 8.0 mph 95 % 0.5 in
22:27 15.7 °F 14.9 °F 1017.2 in NNW 3.2 mph 8.0 mph 95 % 0.5 in
22:37 15.6 °F 14.8 °F 1017.2 in WNW 8.0 mph 8.0 mph 95 % 0.5 in
22:42 15.6 °F 14.8 °F 1017.2 in WNW 4.8 mph 8.0 mph 95 % 0.5 in
22:47 15.5 °F 14.7 °F 1017.5 in WNW 9.7 mph 9.7 mph 95 % 0.5 in
22:52 15.4 °F 14.6 °F 1017.5 in NW 1.6 mph 11.3 mph 95 % 0.5 in
22:57 15.4 °F 14.6 °F 1017.5 in NW 4.8 mph 11.3 mph 95 % 0.3 in
23:02 15.3 °F 14.5 °F 1017.5 in WNW 8.0 mph 11.3 mph 95 % 0.3 in
23:12 15.2 °F 14.4 °F 1017.5 in NNW 3.2 mph 11.3 mph 95 % 0.0 in
23:17 15.2 °F 14.4 °F 1017.8 in WNW 1.6 mph 12.9 mph 95 % 0.0 in
23:22 15.1 °F 14.3 °F 1017.8 in WNW 6.4 mph 12.9 mph 95 % 0.0 in
23:27 15.0 °F 14.2 °F 1017.8 in NW 9.7 mph 12.9 mph 95 % 0.0 in
23:37 14.8 °F 14.0 °F 1017.8 in WNW 6.4 mph 14.5 mph 95 % 0.3 in
23:47 14.6 °F 13.6 °F 1017.8 in NW 3.2 mph 14.5 mph 94 % 0.3 in
23:52 14.4 °F 13.4 °F 1017.8 in North 6.4 mph 14.5 mph 94 % 0.5 in
23:57 14.3 °F 13.3 °F 1018.2 in North 4.8 mph 14.5 mph 94 % 0.5 in
Meteo18
Compliments of Weather Underground - 4 mb

Script developed by  Jim McMurry - jmcmurry@mwt.net Adapted for the template by  Wim van der Kuil - Leuven-Template.eu

You find our weather info also at:

European Weather Network

Weather Underground

Equipment we use:

Weather-station
Davis Vue

Weather-program
Meteobridge

Weather-server
Raspberry PI 2 B+

Provider
1 and 1

Davis Vue

Meteobridge

Raspberry PI 2 B+

1 and 1